Time;durP1;ratioP1;P1;durP2;ratioP2;P2;SDS_P1;SDS_P2;PMS_P1;PMS_P2;Temp;Humidity;BMP_temperature;BMP_pressure;BME280_temperature;BME280_humidity;BME280_pressure;Samples;Min_cycle;Max_cycle;Signal;HPM_P1;HPM_P2
2022/02/10 00:04:14;;;;;;;28.23;18.15;;;;;;;7.76;100.00;101577.72;5056264;28;20137;-87
2022/02/10 00:14:06;;;;;;;25.90;16.02;;;;;;;7.79;100.00;101572.13;5057744;28;20048;-89
2022/02/10 00:22:17;;;;;;;21.17;15.80;;;;;;;7.79;100.00;101558.75;5027175;28;20061;-86
2022/02/10 00:25:21;;;;;;;23.85;15.82;;;;;;;7.79;100.00;101548.91;5020717;28;20238;-88
2022/02/10 00:35:57;;;;;;;20.25;13.40;;;;;;;7.77;100.00;101542.88;5044377;28;20047;-87
2022/02/10 00:38:29;;;;;;;20.70;14.40;;;;;;;7.76;100.00;101535.81;5010719;28;20041;-89
2022/02/10 00:40:54;;;;;;;22.65;14.10;;;;;;;7.77;100.00;101542.00;5019763;28;20057;-86
2022/02/10 00:43:20;;;;;;;20.10;13.65;;;;;;;7.75;100.00;101539.47;5032143;28;20148;-87
2022/02/10 00:45:47;;;;;;;19.73;14.18;;;;;;;7.76;100.00;101543.81;5003384;28;20046;-87
2022/02/10 00:48:13;;;;;;;18.42;13.65;;;;;;;7.77;100.00;101540.19;5006328;28;20045;-88
2022/02/10 00:50:41;;;;;;;17.50;14.02;;;;;;;7.76;100.00;101532.28;5019871;28;20517;-88
2022/02/10 00:53:19;;;;;;;17.97;12.40;;;;;;;7.74;100.00;101524.44;5017083;28;20132;-87
2022/02/10 00:55:47;;;;;;;17.75;13.77;;;;;;;7.74;100.00;101526.22;5017579;28;20903;-88
2022/02/10 00:58:21;;;;;;;17.02;13.15;;;;;;;7.74;100.00;101523.56;5021288;28;20141;-89
2022/02/10 01:30:17;;;;;;;18.10;14.25;;;;;;;7.72;100.00;101488.13;5018692;28;20076;-87
2022/02/10 01:32:46;;;;;;;16.85;11.73;;;;;;;7.72;100.00;101494.31;5020391;28;20042;-88
2022/02/10 01:35:16;;;;;;;18.50;12.20;;;;;;;7.71;100.00;101489.97;5024825;28;20049;-89
2022/02/10 01:37:42;;;;;;;19.75;14.55;;;;;;;7.70;100.00;101477.56;5009561;28;20037;-88
2022/02/10 01:40:19;;;;;;;20.63;13.80;;;;;;;7.69;100.00;101473.19;5005811;28;20505;-88
2022/02/10 02:04:50;;;;;;;18.02;14.07;;;;;;;7.60;100.00;101441.91;5008946;28;20456;-88
2022/02/10 02:07:15;;;;;;;20.27;15.18;;;;;;;7.59;100.00;101448.22;5023269;28;20033;-88
2022/02/10 02:09:41;;;;;;;21.33;14.10;;;;;;;7.57;100.00;101429.66;5019877;28;20260;-86
2022/02/10 02:12:07;;;;;;;17.92;14.32;;;;;;;7.54;100.00;101416.56;5005227;28;20111;-89
2022/02/10 02:14:33;;;;;;;20.17;15.68;;;;;;;7.55;100.00;101412.91;5021956;28;20053;-90
2022/02/10 02:17:02;;;;;;;18.45;13.65;;;;;;;7.54;100.00;101415.69;5022246;28;20057;-88
2022/02/10 02:19:29;;;;;;;19.70;14.80;;;;;;;7.53;100.00;101408.69;5015761;28;20050;-86
2022/02/10 02:22:13;;;;;;;18.70;14.68;;;;;;;7.47;100.00;101400.19;5020929;28;20046;-87
2022/02/10 02:24:40;;;;;;;19.77;13.98;;;;;;;7.44;100.00;101400.47;5022694;28;20052;-89
2022/02/10 02:27:08;;;;;;;19.52;14.85;;;;;;;7.43;100.00;101396.09;5019023;28;20544;-87
2022/02/10 02:29:40;;;;;;;20.33;14.77;;;;;;;7.42;100.00;101397.09;5008139;28;20037;-86
2022/02/10 02:32:13;;;;;;;19.25;14.60;;;;;;;7.42;100.00;101398.88;5016370;28;20042;-90
2022/02/10 02:37:48;;;;;;;17.63;14.88;;;;;;;7.38;100.00;101390.28;5021694;28;20056;-88
2022/02/10 03:05:30;;;;;;;21.33;14.18;;;;;;;7.23;100.00;101355.06;4973408;28;20169;-88
2022/02/10 03:07:58;;;;;;;17.17;14.07;;;;;;;7.24;100.00;101356.75;4995764;28;20433;-86
2022/02/10 03:13:18;;;;;;;20.33;17.35;;;;;;;7.24;100.00;101351.41;5017608;28;20542;-86
2022/02/10 03:18:22;;;;;;;21.77;16.80;;;;;;;7.25;100.00;101341.59;5025159;28;20402;-87
2022/02/10 04:13:00;;;;;;;22.50;16.05;;;;;;;7.15;100.00;67569.22;5014362;28;20099;-89
2022/02/10 05:35:42;;;;;;;31.15;22.77;;;;;;;6.98;100.00;67550.00;5016069;28;20124;-88
2022/02/10 05:38:14;;;;;;;33.03;21.60;;;;;;;6.96;100.00;67547.72;5039876;28;20240;-87
2022/02/10 05:51:54;;;;;;;34.30;26.08;;;;;;;;;;5020624;28;20048;-88
2022/02/10 06:53:52;;;;;;;46.50;30.17;;;;;;;6.84;100.00;67534.16;5049377;28;20050;-87
2022/02/10 09:01:13;;;;;;;9.85;6.20;;;;;;;5.88;100.00;67428.41;5021928;28;20049;-88
2022/02/10 09:06:17;;;;;;;11.82;5.97;;;;;;;5.86;100.00;67420.88;5013865;28;20041;-88
2022/02/10 09:09:28;;;;;;;12.07;7.53;;;;;;;;;;5012332;28;20227;-89
2022/02/10 09:47:26;;;;;;;13.68;8.48;;;;;;;5.75;100.00;67416.91;5017936;28;20062;-88
2022/02/10 10:04:45;;;;;;;12.43;7.38;;;;;;;;;;5020374;28;20037;-87
2022/02/10 10:07:29;;;;;;;11.07;6.47;;;;;;;;;;5020663;28;20102;-87
2022/02/10 10:21:12;;;;;;;15.10;7.80;;;;;;;;;;5022735;28;20420;-88
2022/02/10 10:23:58;;;;;;;12.90;7.38;;;;;;;;;;5014627;28;20123;-87
2022/02/10 10:51:34;;;;;;;8.88;4.45;;;;;;;5.77;100.00;67410.69;5026227;28;20103;-89
2022/02/10 10:56:36;;;;;;;9.75;2.70;;;;;;;;;;5021931;28;20029;-87
2022/02/10 13:03:21;;;;;;;9.95;4.60;;;;;;;7.33;100.00;67589.03;5012371;28;20063;-88
2022/02/10 14:09:40;;;;;;;9.93;3.58;;;;;;;;;;5026730;28;20079;-88
2022/02/10 14:14:50;;;;;;;11.85;5.20;;;;;;;;;;5021261;28;20083;-89
2022/02/10 14:17:27;;;;;;;7.63;2.53;;;;;;;;;;5018373;28;20045;-88
2022/02/10 14:20:13;;;;;;;11.18;3.10;;;;;;;7.43;99.38;67594.50;5029906;28;20041;-89
2022/02/10 14:22:51;;;;;;;14.10;3.42;;;;;;;7.40;99.18;67591.09;5040376;28;20060;-89
2022/02/10 14:28:00;;;;;;;13.93;5.57;;;;;;;;;;5023794;28;20048;-88
2022/02/10 14:30:28;;;;;;;12.02;4.40;;;;;;;;;;5004437;28;20520;-88
2022/02/10 14:32:56;;;;;;;7.93;3.60;;;;;;;7.41;99.82;67598.09;5016890;28;20049;-88
2022/02/10 14:35:28;;;;;;;10.32;4.80;;;;;;;;;;4985603;28;20065;-88
2022/02/10 14:43:32;;;;;;;15.40;5.95;;;;;;;;;;5056521;28;20060;-88
2022/02/10 15:14:36;;;;;;;10.38;4.65;;;;;;;7.14;100.00;67567.53;5031141;28;20076;-89
2022/02/10 15:36:13;;;;;;;13.45;5.97;;;;;;;6.99;100.00;67546.41;5031822;28;20075;-88
2022/02/10 15:54:27;;;;;;;7.85;4.05;;;;;;;;;;5020338;28;20502;-88
2022/02/10 16:10:49;;;;;;;13.35;6.20;;;;;;;6.98;100.00;67545.25;5036776;28;20045;-87
2022/02/10 16:11:00;;;;;;;12.55;5.25;;;;;;;;;;5024623;28;20124;-89
2022/02/10 16:18:50;;;;;;;10.82;3.10;;;;;;;;;;5029179;28;20430;-89
2022/02/10 16:21:34;;;;;;;10.63;3.22;;;;;;;6.77;100.00;67521.53;5018798;28;20038;-89
2022/02/10 16:24:03;;;;;;;6.95;3.13;;;;;;;;;;5013667;28;20048;-89
2022/02/10 16:26:42;;;;;;;11.38;3.25;;;;;;;;;;5037670;28;20529;-89
2022/02/10 16:29:10;;;;;;;8.68;3.10;;;;;;;6.75;100.00;67524.53;5021506;28;20056;-89
2022/02/10 16:31:36;;;;;;;8.23;2.70;;;;;;;6.72;99.11;67513.22;5030973;28;20038;-88
2022/02/10 16:34:02;;;;;;;9.63;2.95;;;;;;;6.69;98.67;67512.47;4999649;28;20099;-89
2022/02/10 16:36:30;;;;;;;10.60;3.05;;;;;;;;;;5008555;28;20062;-89
2022/02/10 16:38:56;;;;;;;5.97;2.80;;;;;;;6.62;98.25;67510.41;5016986;28;20045;-89
2022/02/10 16:41:21;;;;;;;6.90;3.15;;;;;;;6.62;98.79;67510.41;5003726;28;20045;-88
2022/02/10 16:43:47;;;;;;;9.70;2.92;;;;;;;6.61;98.58;67503.41;5006686;28;20398;-87
2022/02/10 16:46:12;;;;;;;10.10;3.53;;;;;;;6.57;98.12;67498.91;5011657;28;20049;-89
2022/02/10 16:48:38;;;;;;;9.55;3.00;;;;;;;6.61;99.97;67503.41;5001831;28;20056;-88
2022/02/10 16:51:09;;;;;;;5.93;2.30;;;;;;;6.55;98.73;67502.47;5009044;28;20042;-88
2022/02/10 16:53:36;;;;;;;9.18;2.90;;;;;;;;;;5005418;28;20037;-90
2022/02/10 16:56:14;;;;;;;7.70;3.25;;;;;;;6.49;98.38;67495.69;5022433;28;20496;-89
2022/02/10 16:58:50;;;;;;;11.65;3.85;;;;;;;6.50;99.54;67489.47;5022088;28;20055;-89
2022/02/10 17:17:36;;;;;;;11.07;4.00;;;;;;;;;;5021994;28;20056;-87
2022/02/10 17:25:35;;;;;;;11.52;4.82;;;;;;;6.34;100.00;67479.31;5024324;28;20425;-88
2022/02/10 17:28:05;;;;;;;12.52;4.70;;;;;;;6.32;100.00;67477.59;5017032;28;20042;-88
2022/02/10 17:31:00;;;;;;;8.93;4.43;;;;;;;;;;5018147;28;20442;-88
2022/02/10 17:36:26;;;;;;;9.07;4.47;;;;;;;;;;5005106;28;20411;-88
2022/02/10 17:54:36;;;;;;;8.73;2.85;;;;;;;;;;5013003;28;20134;-87
2022/02/10 17:57:01;;;;;;;7.50;3.63;;;;;;;5.96;100.00;67432.19;5016307;28;20053;-88
2022/02/10 17:59:28;;;;;;;11.05;4.32;;;;;;;5.97;100.00;67438.59;5022551;28;20232;-88
2022/02/10 18:01:53;;;;;;;10.60;3.80;;;;;;;5.96;100.00;67437.47;5031788;28;20051;-88
2022/02/10 18:04:20;;;;;;;7.15;2.83;;;;;;;5.97;100.00;67433.31;5018888;28;20049;-88
2022/02/10 18:06:53;;;;;;;7.28;3.05;;;;;;;5.95;100.00;67431.06;5012585;28;20050;-88
2022/02/10 18:14:53;;;;;;;7.70;4.25;;;;;;;;;;5013245;28;20458;-88
2022/02/10 18:17:30;;;;;;;11.93;4.30;;;;;;;5.93;100.00;67426.16;5014693;28;20046;-88
2022/02/10 18:20:08;;;;;;;8.90;3.67;;;;;;;5.86;100.00;67420.88;5022555;28;20140;-87
2022/02/10 18:25:45;;;;;;;11.95;4.78;;;;;;;;;;5035309;28;20048;-88
2022/02/10 18:33:26;;;;;;;11.13;4.15;;;;;;;;;;5007618;28;20071;-88
2022/02/10 19:05:32;;;;;;;9.32;3.80;;;;;;;5.46;99.78;67376.22;5031153;28;20055;-87
2022/02/10 19:11:20;;;;;;;12.43;3.38;;;;;;;;;;5036039;28;20040;-87
2022/02/10 19:13:54;;;;;;;9.43;4.03;;;;;;;5.39;99.26;67369.44;5015346;28;20038;-88
2022/02/10 19:16:29;;;;;;;9.23;4.55;;;;;;;5.39;100.00;67368.88;5034563;28;20065;-89
2022/02/10 19:18:54;;;;;;;4.57;2.78;;;;;;;5.35;99.06;67361.72;5027191;28;20092;-86
2022/02/10 19:21:27;;;;;;;10.30;2.97;;;;;;;5.37;100.00;67366.63;5013052;28;20413;-90
2022/02/10 19:24:00;;;;;;;9.60;2.42;;;;;;;5.31;98.69;67365.13;5024921;28;20065;-89
2022/02/10 19:26:50;;;;;;;7.65;2.17;;;;;;;;;;5010072;28;20061;-88
2022/02/10 19:29:23;;;;;;;6.35;2.92;;;;;;;;;;5066848;28;20037;-88
2022/02/10 19:31:50;;;;;;;6.57;2.58;;;;;;;5.22;99.39;67354.97;5053072;28;20072;-88
2022/02/10 19:34:15;;;;;;;11.40;2.72;;;;;;;5.22;100.00;67355.53;5015770;28;20041;-87
2022/02/10 19:36:40;;;;;;;9.82;2.65;;;;;;;;;;4998600;28;20125;-86
2022/02/10 19:39:06;;;;;;;11.43;2.95;;;;;;;;;;5005563;28;20046;-88
2022/02/10 19:41:35;;;;;;;10.35;2.50;;;;;;;;;;5032599;28;20552;-87
2022/02/10 19:44:04;;;;;;;6.93;2.45;;;;;;;5.10;98.11;67342.53;5017480;28;20046;-87
2022/02/10 19:46:29;;;;;;;11.87;3.37;;;;;;;5.17;100.00;67349.88;5013418;28;20048;-87
2022/02/10 19:48:56;;;;;;;10.70;2.78;;;;;;;5.07;98.08;67333.88;5041039;28;20033;-88
2022/02/10 19:51:21;;;;;;;7.78;2.17;;;;;;;;;;5027096;28;20037;-87
2022/02/10 19:53:48;;;;;;;7.43;2.00;;;;;;;5.05;98.95;67336.88;5019710;28;20064;-88
2022/02/10 19:56:14;;;;;;;10.00;2.60;;;;;;;5.02;99.09;67333.50;5005912;28;20042;-88
2022/02/10 19:58:40;;;;;;;10.73;3.10;;;;;;;5.04;100.00;67335.75;5005291;28;20038;-86
2022/02/10 20:01:06;;;;;;;7.50;2.85;;;;;;;4.98;99.35;67329.00;5009653;28;20057;-87
2022/02/10 20:03:33;;;;;;;8.15;2.53;;;;;;;5.00;100.00;67325.97;5027151;28;20064;-86
2022/02/10 20:06:00;;;;;;;8.57;2.50;;;;;;;;;;5017999;28;20041;-89
2022/02/10 20:08:26;;;;;;;12.82;3.63;;;;;;;4.97;100.00;67328.41;5007521;28;20092;-87
2022/02/10 20:10:54;;;;;;;8.48;3.13;;;;;;;4.95;100.00;67320.88;5025382;28;20041;-87
2022/02/10 20:13:30;;;;;;;9.50;2.40;;;;;;;;;;5017573;28;20402;-88
2022/02/10 20:15:58;;;;;;;7.70;2.72;;;;;;;4.92;100.00;67316.91;5026093;28;20280;-87
2022/02/10 20:18:24;;;;;;;7.65;2.75;;;;;;;4.90;100.00;67319.94;5035816;28;20094;-88
2022/02/10 20:20:54;;;;;;;7.43;2.58;;;;;;;4.86;100.00;67318.63;5032599;28;20500;-89
2022/02/10 20:23:24;;;;;;;10.73;2.85;;;;;;;4.87;100.00;67311.28;5028546;28;20094;-89
2022/02/10 20:25:53;;;;;;;9.65;3.00;;;;;;;4.86;100.00;67315.41;5012855;28;20103;-87
2022/02/10 20:28:22;;;;;;;10.85;3.90;;;;;;;;;;5012379;28;20062;-89
2022/02/10 20:30:47;;;;;;;9.02;3.28;;;;;;;;;;5026612;28;20037;-87
2022/02/10 20:33:13;;;;;;;9.20;3.30;;;;;;;4.82;100.00;67310.91;5045906;28;20055;-86
2022/02/10 20:35:43;;;;;;;12.20;3.83;;;;;;;4.79;100.00;67310.72;5017592;28;20045;-88
2022/02/10 20:38:10;;;;;;;8.48;3.05;;;;;;;;;;5006430;28;20049;-87
2022/02/10 20:40:40;;;;;;;10.00;2.80;;;;;;;4.75;100.00;67304.13;5019699;28;20095;-86
2022/02/10 20:43:07;;;;;;;8.15;2.55;;;;;;;4.73;100.00;67301.88;5041837;28;20477;-87
2022/02/10 20:45:34;;;;;;;8.77;2.72;;;;;;;4.73;100.00;67301.88;5003702;28;20080;-88
2022/02/10 20:48:00;;;;;;;11.30;3.00;;;;;;;;;;5033537;28;20452;-89
2022/02/10 20:50:26;;;;;;;7.60;2.58;;;;;;;4.71;100.00;67299.63;5041537;28;20075;-88
2022/02/10 20:52:51;;;;;;;9.77;2.72;;;;;;;4.74;100.00;67297.16;5028349;28;20565;-88
2022/02/10 20:55:17;;;;;;;7.22;2.47;;;;;;;4.67;100.00;67294.53;5026732;28;20055;-87
2022/02/10 20:57:43;;;;;;;8.77;2.33;;;;;;;4.66;100.00;67293.97;5039651;28;20037;-87
2022/02/10 21:00:10;;;;;;;10.05;2.80;;;;;;;4.68;100.00;67290.41;5002620;28;20030;-89
2022/02/10 21:02:40;;;;;;;7.20;2.78;;;;;;;;;;5031716;28;20086;-89
2022/02/10 21:05:25;;;;;;;9.20;2.33;;;;;;;4.65;100.00;67292.84;5035437;28;20043;-87
2022/02/10 21:10:36;;;;;;;10.68;3.50;;;;;;;4.61;100.00;67290.97;5043047;28;20037;-88
2022/02/10 21:13:03;;;;;;;18.08;6.10;;;;;;;4.59;100.00;67288.69;5025445;28;20077;-87
2022/02/10 21:15:39;;;;;;;28.17;10.90;;;;;;;4.59;100.00;67286.06;5033261;28;20037;-87
2022/02/10 21:18:05;;;;;;;20.02;7.30;;;;;;;;;;5024856;28;20214;-88
2022/02/10 21:20:34;;;;;;;15.13;5.40;;;;;;;4.56;100.00;67282.13;5011917;28;20077;-87
2022/02/10 21:23:15;;;;;;;13.75;4.00;;;;;;;;;;5024557;28;20384;-89
2022/02/10 21:25:42;;;;;;;11.32;2.95;;;;;;;4.51;100.00;67269.13;5011581;28;20098;-88
2022/02/10 21:28:16;;;;;;;10.90;3.15;;;;;;;;;;5029485;28;20041;-87
2022/02/10 21:30:42;;;;;;;9.43;2.58;;;;;;;;;;5045026;28;20028;-88
2022/02/10 21:33:15;;;;;;;10.38;2.53;;;;;;;4.44;100.00;67269.13;5014648;28;20175;-88
2022/02/10 21:38:26;;;;;;;7.82;2.72;;;;;;;4.48;100.00;67276.84;5021556;28;20099;-89
2022/02/10 22:18:16;;;;;;;8.80;2.58;;;;;;;;;;5048376;28;20055;-87
2022/02/10 22:20:33;;;;;;;13.90;2.92;;;;;;;4.33;100.00;67251.44;5044928;28;20041;-89
2022/02/10 22:23:05;;;;;;;14.25;3.58;;;;;;;4.29;100.00;67253.34;5012192;28;20061;-87
2022/02/10 22:25:31;;;;;;;8.50;2.60;;;;;;;4.31;100.00;67255.03;4992104;28;20066;-89
2022/02/10 22:28:02;;;;;;;8.43;2.90;;;;;;;4.33;100.00;67252.00;5044366;28;20052;-87
2022/02/10 22:30:44;;;;;;;8.15;3.10;;;;;;;4.32;100.00;67256.16;5011950;28;20045;-87
2022/02/10 22:33:24;;;;;;;9.75;3.10;;;;;;;4.30;100.00;67248.63;5015328;28;20048;-88
2022/02/10 22:35:50;;;;;;;11.15;2.78;;;;;;;;;;5022352;28;20052;-86
2022/02/10 22:38:21;;;;;;;11.13;2.85;;;;;;;4.29;100.00;67253.34;5047359;28;20626;-87
2022/02/10 22:41:01;;;;;;;10.20;3.45;;;;;;;;;;5038367;28;20065;-88
2022/02/10 22:43:26;;;;;;;13.50;3.42;;;;;;;4.25;100.00;67248.81;5023203;28;20110;-89
2022/02/10 22:45:52;;;;;;;12.50;3.25;;;;;;;4.26;100.00;67249.38;5029209;28;20489;-87
2022/02/10 22:48:17;;;;;;;9.40;3.22;;;;;;;4.26;100.00;67252.59;5030857;28;20497;-87
2022/02/10 22:50:42;;;;;;;10.45;3.33;;;;;;;4.28;100.00;67252.19;5031112;28;20128;-89
2022/02/10 22:53:07;;;;;;;11.93;3.80;;;;;;;;;;5030165;28;20045;-86
2022/02/10 22:55:33;;;;;;;11.48;4.25;;;;;;;;;;5041088;28;20049;-87
2022/02/10 22:57:59;;;;;;;12.73;4.93;;;;;;;4.22;100.00;67245.44;5030751;28;20045;-88
2022/02/10 23:00:29;;;;;;;11.57;3.88;;;;;;;;;;5028514;28;20041;-88
2022/02/10 23:02:54;;;;;;;10.88;4.18;;;;;;;4.20;100.00;67243.19;5030656;28;20509;-88
2022/02/10 23:05:21;;;;;;;10.02;4.28;;;;;;;;;;5031909;28;20037;-88
2022/02/10 23:07:47;;;;;;;14.07;4.50;;;;;;;4.16;100.00;67238.09;5025954;28;20103;-87
2022/02/10 23:12:44;;;;;;;11.43;4.00;;;;;;;4.16;100.00;67241.28;5030044;28;20041;-88
2022/02/10 23:15:09;;;;;;;11.63;4.03;;;;;;;4.21;100.00;67243.75;5009083;28;20087;-87
2022/02/10 23:17:36;;;;;;;11.98;3.70;;;;;;;4.17;100.00;67239.81;5010867;28;20050;-88
2022/02/10 23:20:02;;;;;;;8.48;3.92;;;;;;;4.14;100.00;67235.84;5007486;28;20056;-87
2022/02/10 23:22:28;;;;;;;10.07;4.47;;;;;;;4.11;100.00;67232.44;5036916;28;20091;-88
2022/02/10 23:24:53;;;;;;;15.13;4.68;;;;;;;4.03;100.00;67224.00;5023916;28;20069;-87
2022/02/10 23:27:19;;;;;;;13.60;4.78;;;;;;;;;;5023947;28;20041;-88
2022/02/10 23:29:44;;;;;;;14.05;5.03;;;;;;;;;;5030349;28;20094;-88
2022/02/10 23:32:12;;;;;;;11.07;5.00;;;;;;;4.06;100.00;67230.03;5028961;28;20175;-86
2022/02/10 23:34:38;;;;;;;13.00;5.43;;;;;;;;;;5027146;28;20042;-86
2022/02/10 23:37:03;;;;;;;12.52;4.57;;;;;;;;;;5028271;28;20045;-88
2022/02/10 23:39:37;;;;;;;12.57;5.15;;;;;;;3.98;100.00;67218.91;5001706;28;20112;-87
2022/02/10 23:42:07;;;;;;;10.77;5.13;;;;;;;3.92;100.00;67206.88;5018781;28;20494;-88
2022/02/10 23:44:39;;;;;;;17.95;6.25;;;;;;;;;;5002080;28;20046;-86
2022/02/10 23:47:08;;;;;;;12.52;5.93;;;;;;;3.89;100.00;67208.19;5035537;28;20128;-88
2022/02/10 23:49:36;;;;;;;16.23;6.38;;;;;;;;;;5023572;28;20046;-87
2022/02/10 23:52:05;;;;;;;16.23;5.33;;;;;;;3.87;100.00;67213.84;5017969;28;20046;-86
2022/02/10 23:54:35;;;;;;;16.17;5.88;;;;;;;3.79;100.00;67192.19;5021907;28;20384;-86
2022/02/10 23:57:13;;;;;;;13.18;6.70;;;;;;;;;;5014840;28;20479;-86
